Time;durP1;ratioP1;P1;durP2;ratioP2;P2;SDS_P1;SDS_P2;PMS_P1;PMS_P2;Temp;Humidity;BMP_temperature;BMP_pressure;BME280_temperature;BME280_humidity;BME280_pressure;Samples;Min_cycle;Max_cycle;Signal;HPM_P1;HPM_P2
2022/01/12 00:00:24;;;;;;;100.40;34.33;;;;;;;;;;4998593;28;20030;-75
2022/01/12 00:02:50;;;;;;;85.65;31.80;;;;;;;;;;4980905;28;20092;-75
2022/01/12 00:05:17;;;;;;;102.07;32.03;;;;;;;;;;5005802;28;20042;-75
2022/01/12 00:07:43;;;;;;;96.20;30.58;;;;;;;;;;5001032;28;20121;-75
2022/01/12 00:10:09;;;;;;;118.10;33.15;;;;;;;;;;4985908;28;20309;-75
2022/01/12 00:12:35;;;;;;;89.97;31.38;;;;;;;;;;4982115;28;20042;-75
2022/01/12 00:15:01;;;;;;;101.72;33.35;;;;;;;;;;5004839;28;20030;-75
2022/01/12 00:17:28;;;;;;;95.00;32.83;;;;;;;;;;5002083;28;20034;-74
2022/01/12 00:19:54;;;;;;;99.53;32.78;;;;;;;;;;4989863;28;20397;-74
2022/01/12 00:22:20;;;;;;;93.93;32.10;;;;;;;;;;4984768;28;20050;-74
2022/01/12 00:33:13;;;;;;;119.75;34.58;;;;;;;;;;5004680;28;20036;-75
2022/01/12 00:35:40;;;;;;;120.78;33.65;;;;;;;;;;5002681;28;20041;-75
2022/01/12 00:38:07;;;;;;;90.53;32.47;;;;;;;;;;4991798;28;20508;-75
2022/01/12 00:40:33;;;;;;;135.18;35.05;;;;;;;;;;5003366;28;20061;-75
2022/01/12 00:42:59;;;;;;;107.97;35.92;;;;;;;;;;5005420;28;20026;-75
2022/01/12 00:45:25;;;;;;;160.18;34.70;;;;;;;;;;4985704;28;20065;-75
2022/01/12 00:47:51;;;;;;;123.10;36.08;;;;;;;;;;5007915;28;20037;-75
2022/01/12 00:50:18;;;;;;;139.63;32.97;;;;;;;;;;5002830;28;20041;-75
2022/01/12 00:52:44;;;;;;;127.25;32.38;;;;;;;;;;5009753;28;20519;-74
2022/01/12 00:55:10;;;;;;;124.00;33.65;;;;;;;;;;4987718;28;20049;-74
2022/01/12 00:57:36;;;;;;;116.93;33.20;;;;;;;;;;5006263;28;20472;-74
2022/01/12 01:00:03;;;;;;;117.35;32.30;;;;;;;;;;5002575;28;20045;-74
2022/01/12 01:02:29;;;;;;;134.80;35.20;;;;;;;;;;4991161;28;20022;-74
2022/01/12 01:04:56;;;;;;;126.05;33.33;;;;;;;;;;5001122;28;20034;-73
2022/01/12 01:07:21;;;;;;;144.25;34.03;;;;;;;;;;4999861;28;20696;-74
2022/01/12 01:09:58;;;;;;;165.18;36.20;;;;;;;;;;4982797;28;20076;-74
2022/01/12 01:12:24;;;;;;;179.10;35.13;;;;;;;;;;5008525;28;20032;-74
2022/01/12 01:25:43;;;;;;;177.02;35.00;;;;;;;;;;5005715;28;20083;-76
2022/01/12 01:28:09;;;;;;;136.32;31.73;;;;;;;;;;4988939;28;20034;-74
2022/01/12 01:30:37;;;;;;;271.02;37.17;;;;;;;;;;5001784;28;20053;-75
2022/01/12 01:33:07;;;;;;;109.00;32.67;;;;;;;;;;5000147;28;20073;-73
2022/01/12 01:35:35;;;;;;;216.13;35.75;;;;;;;;;;5006864;28;20018;-73
2022/01/12 01:38:02;;;;;;;222.13;35.28;;;;;;;;;;5005405;28;20029;-73
2022/01/12 01:40:29;;;;;;;367.75;39.70;;;;;;;;;;4999540;28;20022;-73
2022/01/12 01:53:43;;;;;;;186.43;33.60;;;;;;;;;;5000604;28;20057;-76
2022/01/12 01:56:09;;;;;;;168.88;34.10;;;;;;;;;;5002697;28;20044;-75
2022/01/12 01:58:35;;;;;;;131.65;34.13;;;;;;;;;;5000323;28;20045;-75
2022/01/12 02:01:02;;;;;;;173.18;32.65;;;;;;;;;;5001170;28;20041;-76
2022/01/12 02:03:29;;;;;;;146.52;34.97;;;;;;;;;;5003319;28;20034;-76
2022/01/12 02:05:56;;;;;;;153.23;34.67;;;;;;;;;;5001881;28;20038;-75
2022/01/12 02:08:22;;;;;;;166.98;34.42;;;;;;;;;;5003157;28;20487;-75
2022/01/12 02:10:54;;;;;;;103.30;33.10;;;;;;;;;;5003722;28;20056;-74
2022/01/12 02:13:20;;;;;;;;;;;;;;;;;;5003697;28;20438;-75
2022/01/12 02:15:47;;;;;;;108.47;29.83;;;;;;;;;;5002038;28;19964;-75
2022/01/12 02:40:20;;;;;;;104.88;29.23;;;;;;;;;;4980135;28;20102;-75
2022/01/12 02:42:56;;;;;;;80.95;28.02;;;;;;;;;;4979202;28;20046;-75
2022/01/12 02:51:10;;;;;;;97.88;27.90;;;;;;;;;;4981425;28;20037;-75
2022/01/12 02:53:43;;;;;;;96.40;26.88;;;;;;;;;;4980149;28;20930;-75
2022/01/12 02:56:30;;;;;;;73.05;25.52;;;;;;;;;;4967909;28;20046;-75
2022/01/12 02:58:58;;;;;;;124.90;28.42;;;;;;;;;;4979721;28;20114;-77
2022/01/12 03:03:56;;;;;;;254.70;31.50;;;;;;;;;;4982348;28;20121;-77
2022/01/12 03:06:27;;;;;;;204.77;32.05;;;;;;;;;;4968329;28;20031;-77
2022/01/12 03:08:53;;;;;;;389.33;35.85;;;;;;;;;;4976563;28;20030;-77
2022/01/12 03:11:20;;;;;;;277.15;30.27;;;;;;;;;;4979321;28;20041;-76
2022/01/12 03:13:46;;;;;;;292.60;31.50;;;;;;;;;;4982015;28;20095;-76
2022/01/12 03:18:38;;;;;;;223.52;30.42;;;;;;;;;;4984802;28;20030;-77
2022/01/12 03:21:05;;;;;;;328.25;33.25;;;;;;;;;;4960986;28;20039;-75
2022/01/12 03:23:31;;;;;;;139.70;28.02;;;;;;;;;;4975859;28;20031;-76
2022/01/12 03:25:57;;;;;;;173.55;28.92;;;;;;;;;;4966053;28;20141;-75
2022/01/12 03:28:24;;;;;;;108.30;29.45;;;;;;;;;;4974629;28;20125;-75
2022/01/12 03:30:55;;;;;;;121.82;27.25;;;;;;;;;;4992027;28;20038;-76
2022/01/12 03:33:37;;;;;;;91.78;26.50;;;;;;;;;;5008098;28;20049;-75
2022/01/12 03:38:45;;;;;;;102.63;23.73;;;;;;;;;;5006822;28;20748;-75
2022/01/12 03:41:12;;;;;;;114.18;24.00;;;;;;;;;;4997689;28;20018;-76
2022/01/12 03:43:38;;;;;;;289.40;27.15;;;;;;;;;;4995591;28;20029;-76
2022/01/12 03:46:05;;;;;;;594.10;32.55;;;;;;;;;;4999614;28;20042;-76
2022/01/12 03:48:31;;;;;;;254.10;24.35;;;;;;;;;;5011306;28;20121;-76
2022/01/12 03:50:57;;;;;;;272.25;23.10;;;;;;;;;;5003452;28;20033;-75
2022/01/12 03:53:23;;;;;;;336.23;25.08;;;;;;;;;;5009056;28;20038;-74
2022/01/12 03:55:50;;;;;;;451.23;29.75;;;;;;;;;;4984800;28;20121;-75
2022/01/12 03:58:16;;;;;;;432.73;30.60;;;;;;;;;;5008428;28;20037;-75
2022/01/12 04:00:42;;;;;;;581.50;33.10;;;;;;;;;;5000529;28;20045;-75
2022/01/12 04:03:08;;;;;;;335.02;24.25;;;;;;;;;;5006208;28;20732;-74
2022/01/12 04:08:20;;;;;;;916.92;40.58;;;;;;;;;;5002865;28;20045;-74
2022/01/12 04:10:47;;;;;;;787.95;41.33;;;;;;;;;;5005772;28;20092;-74
2022/01/12 04:13:14;;;;;;;701.90;38.40;;;;;;;;;;4985213;28;20067;-73
2022/01/12 04:15:40;;;;;;;910.58;48.40;;;;;;;;;;5005185;28;20079;-73
2022/01/12 04:18:06;;;;;;;750.80;40.17;;;;;;;;;;5001870;28;20040;-74
2022/01/12 04:20:32;;;;;;;731.28;33.90;;;;;;;;;;5009272;28;20058;-74
2022/01/12 04:23:17;;;;;;;467.50;28.77;;;;;;;;;;4985230;28;20034;-73
2022/01/12 04:25:43;;;;;;;510.90;26.98;;;;;;;;;;5006185;28;20038;-74
2022/01/12 04:28:09;;;;;;;813.92;39.03;;;;;;;;;;5003398;28;20489;-74
2022/01/12 04:30:36;;;;;;;974.45;39.90;;;;;;;;;;4992339;28;20137;-74
2022/01/12 04:33:02;;;;;;;643.30;30.73;;;;;;;;;;5002138;28;20041;-73
2022/01/12 04:35:33;;;;;;;679.20;32.20;;;;;;;;;;5009829;28;20026;-73
2022/01/12 04:37:59;;;;;;;544.65;29.50;;;;;;;;;;5001948;28;20034;-74
2022/01/12 04:40:25;;;;;;;713.42;37.25;;;;;;;;;;5004141;28;20042;-74
2022/01/12 04:42:53;;;;;;;628.88;30.88;;;;;;;;;;4999531;28;20031;-73
2022/01/12 04:45:37;;;;;;;417.33;24.17;;;;;;;;;;5005302;28;20087;-73
2022/01/12 04:48:32;;;;;;;280.38;19.25;;;;;;;;;;4999618;28;20026;-75
2022/01/12 04:50:56;;;;;;;477.77;28.27;;;;;;;;;;5004995;28;20121;-75
2022/01/12 04:53:23;;;;;;;373.02;22.05;;;;;;;;;;4987742;28;20041;-75
2022/01/12 04:55:49;;;;;;;342.38;26.10;;;;;;;;;;5003475;28;20029;-75
2022/01/12 04:58:16;;;;;;;342.02;24.77;;;;;;;;;;5000921;28;20502;-75
2022/01/12 05:00:43;;;;;;;327.50;17.58;;;;;;;;;;5001643;28;20052;-75
2022/01/12 05:08:53;;;;;;;424.13;20.73;;;;;;;;;;4998615;28;20049;-78
2022/01/12 05:14:03;;;;;;;379.55;19.13;;;;;;;;;;5001005;28;20443;-75
2022/01/12 05:16:29;;;;;;;326.65;18.50;;;;;;;;;;5002622;28;20109;-73
2022/01/12 05:18:57;;;;;;;507.15;22.70;;;;;;;;;;5003996;28;20467;-73
2022/01/12 05:21:24;;;;;;;463.48;21.90;;;;;;;;;;5001309;28;20118;-73
2022/01/12 05:23:51;;;;;;;470.02;20.40;;;;;;;;;;5000334;28;20022;-73
2022/01/12 05:26:17;;;;;;;565.30;23.95;;;;;;;;;;5003682;28;20037;-74
2022/01/12 05:28:43;;;;;;;357.23;17.60;;;;;;;;;;4985979;28;20122;-74
2022/01/12 05:31:10;;;;;;;319.73;15.07;;;;;;;;;;5000490;28;20073;-73
2022/01/12 05:33:37;;;;;;;341.73;17.15;;;;;;;;;;5000707;28;20045;-73
2022/01/12 05:36:05;;;;;;;309.52;16.45;;;;;;;;;;5001382;28;20022;-71
2022/01/12 05:38:32;;;;;;;208.23;11.52;;;;;;;;;;5002438;28;20450;-72
2022/01/12 05:41:00;;;;;;;238.25;13.18;;;;;;;;;;4996333;28;20561;-72
2022/01/12 05:43:29;;;;;;;280.08;12.80;;;;;;;;;;5002277;28;20130;-74
2022/01/12 05:45:56;;;;;;;293.02;16.13;;;;;;;;;;5000335;28;20034;-72
2022/01/12 05:50:50;;;;;;;218.48;15.35;;;;;;;;;;5001034;28;20037;-73
2022/01/12 05:53:16;;;;;;;265.02;12.88;;;;;;;;;;5001489;28;20068;-71
2022/01/12 05:55:43;;;;;;;176.85;11.18;;;;;;;;;;5000877;28;20033;-71
2022/01/12 05:58:09;;;;;;;210.00;12.60;;;;;;;;;;5005874;28;20056;-71
2022/01/12 06:00:35;;;;;;;75.03;7.65;;;;;;;;;;5003081;28;20050;-72
2022/01/12 06:03:02;;;;;;;154.77;9.85;;;;;;;;;;5005124;28;20033;-72
2022/01/12 06:05:28;;;;;;;202.35;13.23;;;;;;;;;;5001562;28;20034;-73
2022/01/12 06:07:55;;;;;;;247.48;13.38;;;;;;;;;;4991469;28;20030;-73
2022/01/12 06:10:23;;;;;;;153.52;9.75;;;;;;;;;;4999726;28;20085;-73
2022/01/12 06:12:49;;;;;;;174.27;8.50;;;;;;;;;;4997591;28;20101;-73
2022/01/12 06:15:15;;;;;;;217.32;10.25;;;;;;;;;;5000746;28;20118;-72
2022/01/12 06:17:41;;;;;;;246.73;15.73;;;;;;;;;;4981689;28;20104;-71
2022/01/12 06:20:08;;;;;;;183.48;9.13;;;;;;;;;;5001871;28;20496;-71
2022/01/12 06:22:35;;;;;;;256.92;10.13;;;;;;;;;;4998568;28;20757;-72
2022/01/12 06:25:02;;;;;;;200.75;7.88;;;;;;;;;;5001491;28;20438;-72
2022/01/12 06:27:30;;;;;;;339.27;10.75;;;;;;;;;;5003645;28;20382;-73
2022/01/12 06:32:41;;;;;;;199.20;9.75;;;;;;;;;;5002967;28;20038;-72
2022/01/12 06:35:07;;;;;;;162.77;12.95;;;;;;;;;;4986282;28;20107;-72
2022/01/12 06:37:33;;;;;;;90.95;7.43;;;;;;;;;;4999683;28;20081;-75
2022/01/12 06:39:59;;;;;;;165.40;10.60;;;;;;;;;;4998481;28;20039;-74
2022/01/12 06:42:26;;;;;;;177.07;9.65;;;;;;;;;;4985960;28;20034;-74
2022/01/12 06:44:52;;;;;;;111.80;6.55;;;;;;;;;;5001147;28;20500;-73
2022/01/12 06:47:19;;;;;;;128.93;9.00;;;;;;;;;;4984702;28;20034;-73
2022/01/12 06:49:45;;;;;;;106.05;7.57;;;;;;;;;;5001698;28;20041;-73
2022/01/12 06:52:11;;;;;;;138.82;10.23;;;;;;;;;;5000201;28;20096;-73
2022/01/12 06:54:37;;;;;;;143.23;9.23;;;;;;;;;;5001679;28;20031;-73
2022/01/12 06:57:03;;;;;;;66.78;7.03;;;;;;;;;;4995519;28;20053;-72
2022/01/12 06:59:29;;;;;;;77.72;8.20;;;;;;;;;;4984620;28;20549;-72
2022/01/12 07:01:55;;;;;;;151.20;10.45;;;;;;;;;;5002356;28;20079;-72
2022/01/12 07:04:21;;;;;;;231.20;12.10;;;;;;;;;;5000188;28;20145;-73
2022/01/12 07:06:47;;;;;;;154.43;10.38;;;;;;;;;;5001335;28;20034;-73
2022/01/12 07:09:13;;;;;;;207.05;15.25;;;;;;;;;;4997968;28;20547;-73
2022/01/12 07:11:41;;;;;;;363.73;14.38;;;;;;;;;;5001747;28;20022;-73
2022/01/12 07:14:07;;;;;;;376.13;17.13;;;;;;;;;;5002553;28;20434;-73
2022/01/12 07:16:33;;;;;;;413.63;17.42;;;;;;;;;;4999600;28;20034;-73
2022/01/12 07:18:59;;;;;;;428.13;18.30;;;;;;;;;;5003739;28;20025;-73
2022/01/12 07:21:29;;;;;;;513.38;24.55;;;;;;;;;;4983785;28;20037;-73
2022/01/12 07:23:56;;;;;;;378.35;15.63;;;;;;;;;;4998643;28;20112;-73
2022/01/12 07:26:23;;;;;;;599.65;19.73;;;;;;;;;;4984580;28;20045;-73
2022/01/12 07:28:49;;;;;;;540.40;23.88;;;;;;;;;;5006408;28;20057;-73
2022/01/12 07:31:15;;;;;;;431.77;16.52;;;;;;;;;;4988465;28;20080;-72
2022/01/12 07:33:41;;;;;;;320.00;14.30;;;;;;;;;;5005528;28;20105;-73
2022/01/12 07:36:07;;;;;;;426.70;15.00;;;;;;;;;;5004600;28;20110;-73
2022/01/12 07:38:33;;;;;;;434.27;17.90;;;;;;;;;;5007783;28;20050;-73
2022/01/12 07:40:59;;;;;;;132.70;8.57;;;;;;;;;;5001657;28;20139;-72
2022/01/12 07:43:25;;;;;;;395.05;18.75;;;;;;;;;;5003343;28;20080;-73
2022/01/12 07:45:52;;;;;;;285.65;14.20;;;;;;;;;;5006158;28;20400;-73
2022/01/12 07:48:18;;;;;;;142.13;7.28;;;;;;;;;;5006262;28;20080;-73
2022/01/12 07:50:44;;;;;;;126.13;6.75;;;;;;;;;;5005580;28;20089;-73
2022/01/12 07:53:10;;;;;;;190.23;11.32;;;;;;;;;;4998214;28;20142;-73
2022/01/12 07:55:37;;;;;;;100.72;9.50;;;;;;;;;;5002821;28;20479;-73
2022/01/12 07:58:03;;;;;;;64.30;7.50;;;;;;;;;;5003627;28;20476;-73
2022/01/12 08:00:29;;;;;;;33.03;7.32;;;;;;;;;;5003984;28;20073;-73
2022/01/12 08:02:55;;;;;;;35.67;8.35;;;;;;;;;;5005254;28;20491;-73
2022/01/12 08:05:21;;;;;;;20.60;6.38;;;;;;;;;;5005770;28;20029;-73
2022/01/12 08:07:48;;;;;;;17.95;6.20;;;;;;;;;;5001875;28;20042;-73
2022/01/12 08:10:14;;;;;;;16.27;7.07;;;;;;;;;;5003580;28;20034;-73
2022/01/12 08:12:41;;;;;;;9.77;6.15;;;;;;;;;;5003214;28;20069;-73
2022/01/12 08:15:07;;;;;;;21.58;7.43;;;;;;;;;;5006514;28;20507;-73
2022/01/12 08:17:34;;;;;;;26.27;6.57;;;;;;;;;;5004676;28;20038;-73
2022/01/12 08:20:01;;;;;;;36.65;6.50;;;;;;;;;;5003205;28;20037;-73
2022/01/12 08:22:27;;;;;;;66.03;9.13;;;;;;;;;;4986577;28;20053;-73
2022/01/12 08:24:53;;;;;;;49.55;6.88;;;;;;;;;;4987588;28;20030;-73
2022/01/12 08:27:19;;;;;;;41.65;7.55;;;;;;;;;;5002452;28;20037;-73
2022/01/12 08:29:45;;;;;;;47.90;8.27;;;;;;;;;;5002279;28;20042;-72
2022/01/12 08:32:12;;;;;;;55.17;8.15;;;;;;;;;;5006458;28;20049;-73
2022/01/12 08:34:38;;;;;;;71.80;9.65;;;;;;;;;;5005126;28;20069;-72
2022/01/12 08:37:04;;;;;;;43.70;8.38;;;;;;;;;;5003779;28;20049;-73
2022/01/12 08:39:30;;;;;;;95.95;10.55;;;;;;;;;;5002840;28;20053;-73
2022/01/12 08:41:56;;;;;;;68.15;9.65;;;;;;;;;;5004159;28;20479;-73
2022/01/12 08:44:22;;;;;;;116.43;9.77;;;;;;;;;;5003307;28;20030;-73
2022/01/12 08:46:48;;;;;;;66.00;8.40;;;;;;;;;;5003909;28;20388;-74
2022/01/12 08:49:14;;;;;;;103.50;11.38;;;;;;;;;;5004941;28;20038;-73
2022/01/12 08:51:40;;;;;;;112.35;9.93;;;;;;;;;;5008454;28;20131;-74
2022/01/12 08:54:06;;;;;;;117.68;9.35;;;;;;;;;;5003112;28;20177;-73
2022/01/12 08:56:32;;;;;;;176.27;13.63;;;;;;;;;;4986939;28;20045;-73
2022/01/12 08:58:58;;;;;;;88.05;8.50;;;;;;;;;;5000099;28;20076;-73
2022/01/12 09:01:24;;;;;;;86.45;8.82;;;;;;;;;;4986405;28;20038;-72
2022/01/12 09:03:50;;;;;;;69.78;7.93;;;;;;;;;;4984640;28;20487;-73
2022/01/12 09:06:17;;;;;;;99.95;9.38;;;;;;;;;;5003335;28;20108;-73
2022/01/12 09:08:46;;;;;;;217.13;11.45;;;;;;;;;;4984481;28;20049;-73
2022/01/12 09:11:13;;;;;;;246.98;15.32;;;;;;;;;;5002006;28;20041;-73
2022/01/12 09:13:40;;;;;;;87.35;7.97;;;;;;;;;;5003345;28;20692;-73
2022/01/12 09:16:08;;;;;;;203.10;13.90;;;;;;;;;;5004306;28;20136;-73
2022/01/12 09:18:34;;;;;;;55.17;6.68;;;;;;;;;;5003187;28;20136;-73
2022/01/12 09:21:01;;;;;;;96.07;7.88;;;;;;;;;;5003342;28;20451;-73
2022/01/12 09:23:27;;;;;;;76.75;6.55;;;;;;;;;;5003934;28;20025;-73
2022/01/12 09:25:53;;;;;;;56.67;6.82;;;;;;;;;;4987756;28;20045;-73
2022/01/12 09:28:19;;;;;;;134.77;7.57;;;;;;;;;;5001758;28;20041;-73
2022/01/12 09:30:45;;;;;;;88.63;7.00;;;;;;;;;;5003864;28;20058;-72
2022/01/12 09:33:11;;;;;;;98.93;9.15;;;;;;;;;;5003354;28;20105;-73
2022/01/12 09:35:37;;;;;;;141.77;10.52;;;;;;;;;;4972523;28;20435;-72
2022/01/12 09:38:03;;;;;;;79.85;5.65;;;;;;;;;;5001899;28;20109;-73
2022/01/12 09:40:29;;;;;;;136.55;10.70;;;;;;;;;;5003296;28;20034;-73
2022/01/12 09:42:57;;;;;;;102.43;7.50;;;;;;;;;;5000412;28;20049;-72
2022/01/12 09:45:26;;;;;;;76.40;6.72;;;;;;;;;;5008786;28;20065;-72
2022/01/12 09:47:52;;;;;;;90.38;6.70;;;;;;;;;;4999324;28;20060;-73
2022/01/12 09:50:21;;;;;;;72.07;7.22;;;;;;;;;;5007292;28;20087;-72
2022/01/12 09:52:47;;;;;;;182.52;11.57;;;;;;;;;;5000971;28;20030;-72
2022/01/12 09:55:13;;;;;;;72.40;8.02;;;;;;;;;;5002700;28;20720;-73
2022/01/12 09:57:41;;;;;;;70.47;7.30;;;;;;;;;;4985058;28;20484;-73
2022/01/12 10:00:07;;;;;;;181.07;9.35;;;;;;;;;;5001330;28;20029;-72
2022/01/12 10:02:33;;;;;;;86.43;7.10;;;;;;;;;;5002315;28;20049;-73
2022/01/12 10:05:00;;;;;;;292.38;12.77;;;;;;;;;;5004612;28;20034;-73
2022/01/12 10:07:26;;;;;;;140.27;8.10;;;;;;;;;;5002209;28;20026;-74
2022/01/12 10:09:56;;;;;;;186.00;11.82;;;;;;;;;;4983545;28;20432;-73
2022/01/12 10:12:24;;;;;;;292.13;14.48;;;;;;;;;;5001154;28;20026;-74
2022/01/12 10:14:52;;;;;;;172.02;10.85;;;;;;;;;;5002129;28;20496;-73
2022/01/12 10:17:19;;;;;;;180.43;8.75;;;;;;;;;;5001932;28;20038;-73
2022/01/12 10:19:45;;;;;;;186.90;8.98;;;;;;;;;;5000896;28;20045;-74
2022/01/12 10:22:15;;;;;;;190.52;11.02;;;;;;;;;;5000703;28;20034;-73
2022/01/12 10:24:42;;;;;;;197.30;9.55;;;;;;;;;;5003548;28;20121;-73
2022/01/12 10:27:21;;;;;;;202.85;9.75;;;;;;;;;;4996441;28;20476;-73
2022/01/12 10:30:03;;;;;;;155.90;7.60;;;;;;;;;;4999716;28;20033;-73
2022/01/12 10:32:29;;;;;;;222.43;13.50;;;;;;;;;;4981190;28;20574;-73
2022/01/12 10:34:57;;;;;;;156.77;7.57;;;;;;;;;;4982719;28;20038;-74
2022/01/12 10:37:26;;;;;;;178.05;8.88;;;;;;;;;;4967326;28;20045;-73
2022/01/12 10:39:53;;;;;;;146.00;6.35;;;;;;;;;;4965476;28;20100;-74
2022/01/12 10:42:20;;;;;;;145.63;7.00;;;;;;;;;;4982809;28;20392;-73
2022/01/12 10:44:50;;;;;;;137.63;7.03;;;;;;;;;;4966089;28;20049;-73
2022/01/12 10:47:16;;;;;;;180.57;9.02;;;;;;;;;;4979551;28;20033;-74
2022/01/12 10:49:59;;;;;;;198.27;10.20;;;;;;;;;;4981890;28;20042;-73
2022/01/12 10:52:27;;;;;;;216.75;10.25;;;;;;;;;;4981539;28;20523;-73
2022/01/12 10:54:55;;;;;;;131.63;6.68;;;;;;;;;;4966333;28;20096;-73
2022/01/12 10:57:26;;;;;;;155.68;8.43;;;;;;;;;;4963030;28;20514;-73
2022/01/12 11:00:09;;;;;;;134.98;6.40;;;;;;;;;;4963421;28;20030;-73
2022/01/12 11:02:36;;;;;;;206.10;10.82;;;;;;;;;;4980932;28;20125;-73
2022/01/12 11:05:03;;;;;;;102.43;8.32;;;;;;;;;;4981857;28;20090;-73
2022/01/12 11:07:32;;;;;;;140.10;7.90;;;;;;;;;;4981528;28;20038;-74
2022/01/12 11:10:00;;;;;;;151.68;12.35;;;;;;;;;;4966182;28;20704;-74
2022/01/12 11:12:26;;;;;;;193.00;7.85;;;;;;;;;;4980466;28;20506;-74
2022/01/12 11:14:52;;;;;;;152.60;10.32;;;;;;;;;;4962893;28;20062;-74
2022/01/12 11:17:19;;;;;;;155.25;7.30;;;;;;;;;;4981608;28;20045;-71
2022/01/12 11:20:11;;;;;;;127.53;6.88;;;;;;;;;;4965947;28;20038;-74
2022/01/12 11:22:41;;;;;;;92.53;8.80;;;;;;;;;;4948479;28;20038;-73
2022/01/12 11:25:27;;;;;;;180.27;10.80;;;;;;;;;;4980498;28;20038;-74
2022/01/12 11:28:11;;;;;;;109.88;8.23;;;;;;;;;;4986018;28;20053;-74
2022/01/12 11:30:38;;;;;;;123.25;8.95;;;;;;;;;;4985888;28;20053;-74
2022/01/12 11:33:05;;;;;;;51.95;6.45;;;;;;;;;;5005922;28;20037;-73
2022/01/12 11:35:33;;;;;;;69.05;6.85;;;;;;;;;;4988094;28;20137;-73
2022/01/12 11:38:00;;;;;;;57.80;5.53;;;;;;;;;;5002238;28;20068;-72
2022/01/12 11:40:33;;;;;;;46.65;4.80;;;;;;;;;;4983613;28;20448;-73
2022/01/12 11:42:59;;;;;;;53.95;5.88;;;;;;;;;;4999886;28;20046;-73
2022/01/12 11:45:26;;;;;;;47.33;6.45;;;;;;;;;;5002878;28;20036;-73
2022/01/12 11:47:52;;;;;;;32.13;5.93;;;;;;;;;;4979363;28;20069;-72
2022/01/12 11:50:18;;;;;;;38.85;6.05;;;;;;;;;;5002886;28;20388;-72
2022/01/12 11:52:44;;;;;;;44.40;6.25;;;;;;;;;;5002532;28;20037;-72
2022/01/12 11:55:11;;;;;;;36.25;6.15;;;;;;;;;;4984064;28;20095;-72
2022/01/12 11:57:41;;;;;;;36.97;5.65;;;;;;;;;;4999755;28;20029;-72
2022/01/12 12:00:11;;;;;;;52.80;6.18;;;;;;;;;;4984284;28;20041;-72
2022/01/12 12:02:39;;;;;;;64.35;7.13;;;;;;;;;;5008961;28;20383;-72
2022/01/12 12:05:10;;;;;;;61.45;6.68;;;;;;;;;;5000275;28;20491;-72
2022/01/12 12:08:04;;;;;;;27.77;5.93;;;;;;;;;;5000613;28;20446;-72
2022/01/12 12:10:37;;;;;;;30.35;6.30;;;5.90;99.90;;;;;;4997546;28;20041;-71
2022/01/12 12:13:05;;;;;;;51.85;6.57;;;;;;;;;;5005661;28;20044;-73
2022/01/12 12:15:31;;;;;;;53.67;6.63;;;;;;;;;;5006013;28;20041;-73
2022/01/12 12:18:00;;;;;;;37.88;6.35;;;;;;;;;;4987610;28;20046;-73
2022/01/12 12:20:27;;;;;;;53.65;6.45;;;;;;;;;;5004567;28;21727;-73
2022/01/12 12:22:53;;;;;;;109.10;7.32;;;;;;;;;;5003638;28;20042;-73
2022/01/12 12:25:21;;;;;;;35.45;6.78;;;;;;;;;;5002489;28;20036;-73
2022/01/12 12:27:50;;;;;;;66.07;7.13;;;;;;;;;;5001404;28;20441;-73
2022/01/12 12:30:17;;;;;;;48.75;7.90;;;;;;;;;;5001446;28;20038;-73
2022/01/12 12:32:43;;;;;;;58.88;6.72;;;;;;;;;;4987213;28;20439;-72
2022/01/12 12:35:11;;;;;;;101.93;8.10;;;;;;;;;;5006327;28;20025;-72
2022/01/12 12:37:39;;;;;;;47.88;7.57;;;;;;;;;;5000510;28;20121;-72
2022/01/12 12:40:12;;;;;;;75.15;9.35;;;;;;;;;;5006349;28;20025;-73
2022/01/12 12:42:38;;;;;;;98.20;8.77;;;;;;;;;;5002217;28;20038;-73
2022/01/12 12:45:05;;;;;;;40.33;8.52;;;;;;;;;;5004804;28;20038;-73
2022/01/12 12:47:32;;;;;;;52.33;8.10;;;;;;;;;;5004741;28;20127;-73
2022/01/12 12:50:03;;;;;;;37.83;10.38;;;;;;;;;;5002716;28;20033;-73
2022/01/12 12:52:29;;;;;;;55.08;9.60;;;;;;;;;;5002561;28;20042;-72
2022/01/12 12:54:57;;;;;;;51.22;9.88;;;;;;;;;;5002501;28;20084;-73
2022/01/12 12:57:23;;;;;;;42.00;9.20;;;;;;;;;;5002149;28;20034;-73
2022/01/12 12:59:50;;;;;;;25.63;8.73;;;;;;;;;;5005142;28;20034;-73
2022/01/12 13:02:17;;;;;;;50.92;8.98;;;;;;;;;;5001897;28;20030;-73
2022/01/12 13:04:43;;;;;;;31.45;9.63;;;;;;;;;;4998629;28;20523;-72
2022/01/12 13:07:17;;;;;;;63.67;10.13;;;;;;;;;;5003476;28;20051;-73
2022/01/12 13:09:43;;;;;;;50.13;10.48;;;;;;;;;;5004132;28;20392;-73
2022/01/12 13:12:09;;;;;;;53.85;9.38;;;;;;;;;;4996483;28;20025;-72
2022/01/12 13:14:45;;;;;;;45.58;9.60;;;;;;;;;;5003379;28;20460;-73
2022/01/12 13:17:12;;;;;;;46.55;8.40;;;;;;;;;;4984585;28;20115;-72
2022/01/12 13:22:26;;;;;;;51.85;8.90;;;;;;;;;;4973623;28;21217;-73
2022/01/12 13:24:52;;;;;;;48.67;8.55;;;;;;;;;;4989103;28;20099;-73
2022/01/12 13:27:19;;;;;;;50.75;8.85;;;;;;;;;;5001811;28;20771;-73
2022/01/12 13:29:46;;;;;;;30.80;8.25;;;;;;;;;;5000161;28;20041;-73
2022/01/12 13:32:12;;;;;;;67.72;10.85;;;;;;;;;;5002093;28;20546;-73
2022/01/12 13:34:42;;;;;;;76.72;8.57;;;;;;;;;;5002468;28;20034;-73
2022/01/12 13:37:13;;;;;;;77.65;9.07;;;;;;;;;;5003929;28;20120;-73
2022/01/12 13:39:39;;;;;;;66.15;8.73;;;;;;;;;;5002352;28;20089;-72
2022/01/12 13:42:05;;;;;;;92.53;8.27;;;;;;;;;;5003533;28;20030;-72
2022/01/12 13:44:31;;;;;;;53.20;8.40;;;;;;;;;;5002164;28;20049;-72
2022/01/12 13:47:22;;;;;;;58.97;8.93;;;;;;;;;;5001283;28;20046;-73
2022/01/12 13:49:48;;;;;;;83.05;8.68;;;;;;;;;;5001600;28;20062;-73
2022/01/12 13:52:14;;;;;;;96.28;8.43;;;;;;;;;;5001985;28;20066;-73
2022/01/12 13:54:43;;;;;;;99.35;8.90;;;6.40;99.90;;;;;;4988684;28;20032;-73
2022/01/12 13:57:10;;;;;;;60.53;9.40;;;;;;;;;;4983637;28;20159;-73
2022/01/12 13:59:46;;;;;;;59.72;8.90;;;;;;;;;;5002473;28;20164;-72
2022/01/12 14:02:13;;;;;;;41.70;8.23;;;;;;;;;;4985538;28;20252;-73
2022/01/12 14:04:43;;;;;;;63.13;9.02;;;;;;;;;;5006077;28;20041;-73
2022/01/12 14:07:11;;;;;;;51.47;8.90;;;;;;;;;;5001482;28;20044;-73
2022/01/12 14:09:41;;;;;;;34.35;9.38;;;;;;;;;;4983001;28;20034;-73
2022/01/12 14:12:09;;;;;;;67.70;9.52;;;;;;;;;;4999830;28;20471;-73
2022/01/12 14:14:45;;;;;;;42.40;8.10;;;;;;;;;;5004212;28;20125;-73
2022/01/12 14:17:21;;;;;;;63.85;8.43;;;;;;;;;;5000139;28;20086;-73
2022/01/12 14:19:57;;;;;;;63.67;8.40;;;;;;;;;;5002809;28;20125;-73
2022/01/12 14:22:24;;;;;;;68.22;8.93;;;;;;;;;;5002363;28;20046;-73
2022/01/12 14:25:00;;;;;;;36.35;9.05;;;;;;;;;;4999850;28;20554;-73
2022/01/12 14:27:37;;;;;;;61.88;11.57;;;;;;;;;;5002900;28;20065;-73
2022/01/12 14:30:05;;;;;;;61.92;9.93;;;;;;;;;;5002391;28;20071;-73
2022/01/12 14:32:35;;;;;;;73.90;9.20;;;;;;;;;;5001805;28;20057;-73
2022/01/12 14:35:01;;;;;;;62.58;9.70;;;;;;;;;;5002020;28;20043;-73
2022/01/12 14:37:27;;;;;;;66.63;9.27;;;;;;;;;;5001924;28;20044;-73
2022/01/12 14:39:53;;;;;;;48.80;9.10;;;;;;;;;;4985890;28;20042;-74
2022/01/12 14:42:19;;;;;;;51.75;8.25;;;;;;;;;;4984575;28;20041;-73
2022/01/12 14:44:46;;;;;;;109.28;9.55;;;;;;;;;;5002064;28;20134;-73
2022/01/12 14:47:12;;;;;;;40.38;8.52;;;;;;;;;;4999086;28;20038;-73
2022/01/12 14:49:38;;;;;;;41.50;9.02;;;;;;;;;;4985587;28;20045;-73
2022/01/12 14:52:04;;;;;;;52.15;9.25;;;;;;;;;;5000796;28;20061;-73
2022/01/12 14:54:30;;;;;;;47.72;8.90;;;;;;;;;;4982243;28;20033;-73
2022/01/12 14:56:56;;;;;;;73.18;8.82;;;;;;;;;;5001790;28;20088;-73
2022/01/12 14:59:22;;;;;;;46.22;8.57;;;;;;;;;;5003616;28;20049;-73
2022/01/12 15:01:48;;;;;;;24.27;8.07;;;;;;;;;;5001516;28;20526;-73
2022/01/12 15:04:14;;;;;;;61.20;10.73;;;;;;;;;;5004995;28;20076;-73
2022/01/12 15:06:40;;;;;;;48.53;9.48;;;;;;;;;;4984534;28;20062;-72
2022/01/12 15:09:06;;;;;;;40.47;8.68;;;;;;;;;;4989251;28;20034;-71
2022/01/12 15:11:39;;;;;;;62.30;8.80;;;;;;;;;;4997496;28;20033;-71
2022/01/12 15:14:22;;;;;;;;;;;;;;;;;;4999929;28;20125;-72
2022/01/12 15:16:48;;;;;;;;;;;5.90;99.90;;;;;;5011939;28;19971;-72
2022/01/12 15:19:14;;;;;;;55.75;9.45;;;;;;;;;;5006839;28;19945;-72
2022/01/12 15:21:42;;;;;;;81.65;11.77;;;;;;;;;;5005283;28;20558;-71
2022/01/12 15:24:08;;;;;;;57.70;10.75;;;;;;;;;;5001799;28;20434;-71
2022/01/12 15:26:34;;;;;;;69.95;12.02;;;;;;;;;;5006147;28;20034;-71
2022/01/12 15:29:00;;;;;;;48.28;11.23;;;;;;;;;;4999180;28;20121;-71
2022/01/12 15:31:26;;;;;;;78.93;12.70;;;;;;;;;;5007293;28;20483;-73
2022/01/12 15:33:52;;;;;;;50.65;10.80;;;;;;;;;;4998906;28;20030;-73
2022/01/12 15:36:18;;;;;;;71.63;15.48;;;;;;;;;;4989886;28;20460;-72
2022/01/12 15:38:44;;;;;;;53.72;18.10;;;;;;;;;;5000352;28;20046;-72
2022/01/12 15:41:10;;;;;;;77.10;11.73;;;;;;;;;;5005097;28;20117;-73
2022/01/12 15:43:36;;;;;;;147.50;17.75;;;;;;;;;;4997406;28;20428;-72